Time;durP1;ratioP1;P1;durP2;ratioP2;P2;SDS_P1;SDS_P2;PMS_P1;PMS_P2;Temp;Humidity;BMP_temperature;BMP_pressure;BME280_temperature;BME280_humidity;BME280_pressure;Samples;Min_cycle;Max_cycle;Signal;HPM_P1;HPM_P2
2022/03/10 00:02:25;;;;;;;;;;;;;;;27.78;58.41;97254.94;586766;242;68472;-67
2022/03/10 00:04:52;;;;;;;;;;;;;;;27.77;58.30;97266.03;586636;242;66455;-67
2022/03/10 00:07:20;;;;;;;;;;;;;;;27.76;57.90;97259.84;586677;242;63381;-66
2022/03/10 00:09:47;;;;;;;;;;;;;;;27.76;58.56;97261.75;586645;242;66401;-67
2022/03/10 00:12:15;;;;;;;;;;;;;;;27.74;58.15;97261.26;586643;242;66751;-67
2022/03/10 00:14:42;;;;;;;;;;;;;;;27.73;58.79;97254.28;586668;242;63361;-66
2022/03/10 00:17:10;;;;;;;;;;;;;;;27.73;59.33;97260.47;586745;242;66297;-67
2022/03/10 00:19:37;;;;;;;;;;;;;;;27.71;58.68;97259.97;586666;242;66402;-67
2022/03/10 00:22:06;;;;;;;;;;;;;;;27.72;59.51;97264.28;586672;242;63265;-67
2022/03/10 00:24:34;;;;;;;;;;;;;;;27.70;58.84;97261.09;586644;242;68641;-67
2022/03/10 00:27:01;;;;;;;;;;;;;;;27.68;58.43;97264.09;586676;242;68183;-67
2022/03/10 00:29:29;;;;;;;;;;;;;;;27.68;59.71;97257.89;586726;242;65641;-64
2022/03/10 00:31:57;;;;;;;;;;;;;;;27.67;57.53;97256.31;586684;242;66285;-64
2022/03/10 00:34:24;;;;;;;;;;;;;;;27.66;58.92;97257.40;586652;242;66635;-64
2022/03/10 00:36:52;;;;;;;;;;;;;;;27.65;58.71;97264.70;586651;242;64108;-64
2022/03/10 00:39:19;;;;;;;;;;;;;;;27.65;58.43;97258.52;586627;242;68342;-64
2022/03/10 00:41:47;;;;;;;;;;;;;;;27.63;58.11;97256.11;586737;242;66514;-64
2022/03/10 00:44:14;;;;;;;;;;;;;;;27.62;57.71;97254.53;586661;242;63302;-64
2022/03/10 00:46:42;;;;;;;;;;;;;;;27.62;57.64;97259.92;589100;240;66317;-64
2022/03/10 00:49:09;;;;;;;;;;;;;;;27.61;56.89;97258.34;589436;240;66399;-64
2022/03/10 00:51:37;;;;;;;;;;;;;;;27.60;56.44;97255.94;589436;240;63167;-64
2022/03/10 00:54:07;;;;;;;;;;;;;;;27.59;58.46;97257.84;589513;240;52130;-65
2022/03/10 00:56:34;;;;;;;;;;;;;;;27.58;56.39;97252.73;589492;240;66416;-65
2022/03/10 00:59:02;;;;;;;;;;;;;;;27.58;57.48;97252.73;589409;240;63410;-65
2022/03/10 01:01:30;;;;;;;;;;;;;;;27.56;57.17;97255.77;589444;240;69220;-64
2022/03/10 01:03:57;;;;;;;;;;;;;;;27.55;58.82;97256.06;589432;240;68601;-65
2022/03/10 01:06:25;;;;;;;;;;;;;;;27.54;57.70;97252.57;589460;240;65372;-65
2022/03/10 01:08:53;;;;;;;;;;;;;;;27.53;58.36;97253.69;589507;240;65625;-64
2022/03/10 01:11:20;;;;;;;;;;;;;;;27.51;57.07;97258.59;589464;240;66396;-65
2022/03/10 01:13:48;;;;;;;;;;;;;;;27.50;57.32;97254.30;589479;239;66019;-64
2022/03/10 01:16:16;;;;;;;;;;;;;;;27.51;58.24;97257.80;589495;240;68267;-65
2022/03/10 01:18:45;;;;;;;;;;;;;;;27.48;57.63;97248.41;589592;238;46726;-64
2022/03/10 01:21:13;;;;;;;;;;;;;;;27.48;56.38;97253.02;589480;240;65312;-64
2022/03/10 01:23:40;;;;;;;;;;;;;;;27.48;56.60;97253.81;589453;240;68383;-65
2022/03/10 01:26:08;;;;;;;;;;;;;;;27.45;55.99;97255.22;589478;240;68519;-64
2022/03/10 01:28:36;;;;;;;;;;;;;;;27.47;56.79;97251.41;589458;240;65292;-64
2022/03/10 01:31:04;;;;;;;;;;;;;;;27.46;58.09;97253.31;589464;239;68359;-64
2022/03/10 01:33:33;;;;;;;;;;;;;;;27.44;57.04;97252.81;589512;240;66508;-64
2022/03/10 01:36:00;;;;;;;;;;;;;;;27.43;55.70;97254.72;589462;240;65296;-64
2022/03/10 01:38:28;;;;;;;;;;;;;;;27.43;57.88;97253.93;589463;239;68367;-64
2022/03/10 01:40:55;;;;;;;;;;;;;;;27.41;55.88;97254.22;589473;240;68185;-64
2022/03/10 01:43:23;;;;;;;;;;;;;;;27.40;56.48;97249.94;589462;240;65337;-64
2022/03/10 01:45:50;;;;;;;;;;;;;;;27.39;56.97;97255.63;587974;240;68502;-64
2022/03/10 01:48:18;;;;;;;;;;;;;;;27.39;57.22;97252.94;586673;242;68699;-64
2022/03/10 01:50:45;;;;;;;;;;;;;;;27.38;56.98;97251.35;586619;242;65360;-64
2022/03/10 01:53:13;;;;;;;;;;;;;;;27.37;57.00;97247.86;586667;242;68528;-64
2022/03/10 01:55:41;;;;;;;;;;;;;;;27.34;56.03;97251.17;586741;242;69187;-64
2022/03/10 01:58:09;;;;;;;;;;;;;;;27.35;57.20;97251.97;586707;242;65420;-64
2022/03/10 02:00:36;;;;;;;;;;;;;;;27.34;56.72;97248.48;586650;242;68537;-64
2022/03/10 02:03:04;;;;;;;;;;;;;;;27.33;57.51;97259.56;586696;242;66469;-66
2022/03/10 02:05:32;;;;;;;;;;;;;;;27.33;56.43;97259.56;586688;242;63193;-67
2022/03/10 02:10:45;;;;;;;;;;;;;;;27.31;57.70;97262.59;586725;242;68548;-67
2022/03/10 02:13:13;;;;;;;;;;;;;;;27.30;56.15;97265.58;586628;242;65294;-65
2022/03/10 02:18:27;;;;;;;;;;;;;;;27.29;56.15;97261.30;586698;242;66322;-65
2022/03/10 02:20:54;;;;;;;;;;;;;;;27.28;55.82;97265.88;586682;242;63213;-65
2022/03/10 02:23:22;;;;;;;;;;;;;;;27.28;59.19;97265.08;586656;242;66297;-65
2022/03/10 02:25:50;;;;;;;;;;;;;;;27.24;57.38;97273.00;586708;242;68528;-65
2022/03/10 02:28:18;;;;;;;;;;;;;;;27.25;55.05;97271.09;586704;242;65376;-68
2022/03/10 02:30:47;;;;;;;;;;;;;;;27.25;59.06;97281.88;586713;242;68271;-68
2022/03/10 02:33:14;;;;;;;;;;;;;;;27.22;55.00;97275.20;586690;242;68209;-65
2022/03/10 02:35:42;;;;;;;;;;;;;;;27.21;56.51;97277.10;586705;242;64199;-65
2022/03/10 02:38:09;;;;;;;;;;;;;;;27.20;55.86;97275.52;586677;242;68250;-65
2022/03/10 02:40:37;;;;;;;;;;;;;;;27.21;56.35;97281.70;586715;242;68288;-65
2022/03/10 02:43:05;;;;;;;;;;;;;;;27.19;56.44;97284.70;586697;242;65264;-65
2022/03/10 02:45:32;;;;;;;;;;;;;;;27.17;57.42;97284.23;586655;240;66188;-65
2022/03/10 02:48:00;;;;;;;;;;;;;;;27.16;56.18;97279.91;586707;242;66109;-65
2022/03/10 02:50:27;;;;;;;;;;;;;;;27.15;54.69;97286.39;586729;242;64070;-65
2022/03/10 02:52:55;;;;;;;;;;;;;;;27.15;56.56;97288.30;586686;242;68269;-65
2022/03/10 02:55:22;;;;;;;;;;;;;;;27.14;55.95;97294.78;586713;242;68192;-65
2022/03/10 02:57:50;;;;;;;;;;;;;;;27.14;56.88;97290.17;586701;242;65370;-65
2022/03/10 03:00:18;;;;;;;;;;;;;;;27.12;56.13;97292.40;586667;242;68448;-65
2022/03/10 03:02:46;;;;;;;;;;;;;;;27.10;57.24;97289.20;586674;242;68781;-65
2022/03/10 03:05:14;;;;;;;;;;;;;;;27.10;57.24;97291.90;586667;242;65745;-65
2022/03/10 03:07:42;;;;;;;;;;;;;;;27.10;57.09;97299.20;586692;242;66275;-65
2022/03/10 03:10:10;;;;;;;;;;;;;;;27.09;58.72;97290.31;586659;242;66461;-65
2022/03/10 03:12:48;;;;;;;;;;;;;;;27.06;59.44;97288.20;586671;242;65628;-65
2022/03/10 03:15:17;;;;;;;;;;;;;;;27.06;59.94;97290.89;586673;242;68445;-63
2022/03/10 03:17:45;;;;;;;;;;;;;;;27.05;57.66;97289.31;586664;242;68530;-64
2022/03/10 03:20:14;;;;;;;;;;;;;;;27.04;59.78;97286.91;586717;242;65291;-64
2022/03/10 03:22:42;;;;;;;;;;;;;;;27.02;58.59;97276.44;586681;242;66049;-64
2022/03/10 03:25:10;;;;;;;;;;;;;;;27.01;57.04;97282.95;586659;242;66411;-65
2022/03/10 03:27:37;;;;;;;;;;;;;;;27.02;59.04;97279.14;586665;242;63041;-65
2022/03/10 03:30:05;;;;;;;;;;;;;;;27.01;58.52;97280.25;586692;242;66571;-64
2022/03/10 03:32:33;;;;;;;;;;;;;;;27.01;61.05;97282.95;586692;242;68519;-65
2022/03/10 03:35:00;;;;;;;;;;;;;;;26.99;56.55;97288.63;586682;242;65343;-65
2022/03/10 03:37:28;;;;;;;;;;;;;;;26.98;59.53;97281.66;586670;242;68689;-65
2022/03/10 03:39:55;;;;;;;;;;;;;;;26.96;55.12;97291.94;586656;242;68491;-65
2022/03/10 03:42:23;;;;;;;;;;;;;;;26.98;58.11;97291.62;586672;242;65176;-65
2022/03/10 03:44:50;;;;;;;;;;;;;;;26.96;58.96;97297.33;586848;241;68728;-65
2022/03/10 03:47:18;;;;;;;;;;;;;;;26.94;58.89;97294.13;588330;241;68859;-65
2022/03/10 03:49:45;;;;;;;;;;;;;;;26.94;61.78;97293.34;588321;241;65284;-65
2022/03/10 03:52:13;;;;;;;;;;;;;;;26.93;59.83;97299.84;588308;241;68831;-65
2022/03/10 03:54:40;;;;;;;;;;;;;;;26.92;62.22;97303.63;588311;241;68765;-65
2022/03/10 03:57:08;;;;;;;;;;;;;;;26.91;58.02;97304.73;588326;241;65297;-68
2022/03/10 03:59:36;;;;;;;;;;;;;;;26.91;60.90;97310.13;588289;239;68785;-68
2022/03/10 04:02:04;;;;;;;;;;;;;;;26.89;61.73;97309.63;588271;241;66678;-68
2022/03/10 04:04:31;;;;;;;;;;;;;;;26.88;58.63;97316.13;588284;241;65683;-68
2022/03/10 04:06:58;;;;;;;;;;;;;;;26.86;59.03;97318.33;588311;241;68883;-67
2022/03/10 04:09:26;;;;;;;;;;;;;;;26.86;58.14;97323.72;588368;240;68409;-67
2022/03/10 04:11:53;;;;;;;;;;;;;;;26.86;59.88;97318.33;588298;240;65147;-67
2022/03/10 04:14:21;;;;;;;;;;;;;;;26.85;60.17;97328.31;588309;241;68973;-68
2022/03/10 04:16:48;;;;;;;;;;;;;;;26.82;61.37;97322.70;588278;241;68890;-68
2022/03/10 04:19:16;;;;;;;;;;;;;;;26.82;60.81;97330.80;588299;241;65331;-68
2022/03/10 04:21:43;;;;;;;;;;;;;;;26.79;59.07;97329.50;588334;241;68897;-67
2022/03/10 04:24:11;;;;;;;;;;;;;;;26.79;60.73;97324.93;588351;241;68324;-68
2022/03/10 04:26:39;;;;;;;;;;;;;;;26.77;57.67;97327.13;588256;241;65370;-68
2022/03/10 04:29:06;;;;;;;;;;;;;;;26.77;60.29;97324.42;588307;238;66673;-67
2022/03/10 04:31:34;;;;;;;;;;;;;;;26.76;58.80;97324.71;588292;241;66618;-67
2022/03/10 04:34:02;;;;;;;;;;;;;;;26.76;58.60;97322.84;588292;241;63205;-67
2022/03/10 04:36:29;;;;;;;;;;;;;;;26.75;58.01;97329.31;588365;241;68503;-67
2022/03/10 04:38:57;;;;;;;;;;;;;;;26.74;58.65;97326.94;588302;238;68765;-67
2022/03/10 04:41:25;;;;;;;;;;;;;;;26.73;59.65;97328.80;588312;241;65280;-68
2022/03/10 04:43:52;;;;;;;;;;;;;;;26.71;60.68;97333.72;588362;240;66824;-67
2022/03/10 04:46:20;;;;;;;;;;;;;;;26.71;60.23;97339.12;587100;240;66601;-67
2022/03/10 04:48:48;;;;;;;;;;;;;;;26.70;60.07;97332.11;586733;242;63164;-67
2022/03/10 04:51:16;;;;;;;;;;;;;;;26.70;61.60;97337.50;586671;242;68649;-67
2022/03/10 04:53:43;;;;;;;;;;;;;;;26.66;61.69;97336.52;586619;242;68756;-67
2022/03/10 04:56:11;;;;;;;;;;;;;;;26.68;58.70;97334.33;586672;242;65282;-67
2022/03/10 04:58:39;;;;;;;;;;;;;;;26.67;60.51;97338.11;586699;242;68773;-67
2022/03/10 05:01:06;;;;;;;;;;;;;;;26.65;61.81;97348.37;586721;242;68739;-67
2022/03/10 05:03:34;;;;;;;;;;;;;;;26.65;59.29;97344.89;586682;242;65259;-68
2022/03/10 05:06:01;;;;;;;;;;;;;;;26.65;59.38;97344.89;586590;242;66705;-67
2022/03/10 05:08:29;;;;;;;;;;;;;;;26.63;61.52;97353.30;586626;242;66623;-67
2022/03/10 05:10:57;;;;;;;;;;;;;;;26.62;58.56;97362.46;586657;242;63025;-67
2022/03/10 05:13:25;;;;;;;;;;;;;;;26.62;61.67;97361.67;586641;242;69061;-66
2022/03/10 05:15:53;;;;;;;;;;;;;;;26.58;62.36;97361.48;586692;242;68730;-69
2022/03/10 05:18:20;;;;;;;;;;;;;;;26.57;59.49;97373.34;586599;242;63263;-68
2022/03/10 05:20:48;;;;;;;;;;;;;;;26.57;60.95;97378.73;586651;242;68883;-67
2022/03/10 05:23:15;;;;;;;;;;;;;;;26.56;61.04;97379.84;586675;242;68457;-68
2022/03/10 05:25:43;;;;;;;;;;;;;;;26.54;62.47;97387.41;586677;242;62842;-68
2022/03/10 05:28:15;;;;;;;;;;;;;;;26.53;58.72;97388.52;586723;242;66462;-67
2022/03/10 05:30:45;;;;;;;;;;;;;;;26.51;62.09;97407.67;586501;240;67010;-67
2022/03/10 05:33:13;;;;;;;;;;;;;;;26.48;61.21;97410.94;585938;242;65308;-67
2022/03/10 05:35:40;;;;;;;;;;;;;;;26.47;62.72;97414.73;586305;242;66665;-67
2022/03/10 05:38:08;;;;;;;;;;;;;;;26.46;59.19;97415.81;586610;242;66675;-67
2022/03/10 05:40:35;;;;;;;;;;;;;;;26.47;62.94;97413.95;586686;242;63148;-67
2022/03/10 05:43:03;;;;;;;;;;;;;;;26.46;59.89;97420.41;586647;242;66833;-68
2022/03/10 05:45:30;;;;;;;;;;;;;;;26.43;61.31;97418.31;586607;240;65280;-67
2022/03/10 05:47:58;;;;;;;;;;;;;;;26.43;62.43;97426.40;586676;242;65464;-68
2022/03/10 05:50:27;;;;;;;;;;;;;;;26.44;60.41;97425.33;586661;242;68602;-67
2022/03/10 05:52:57;;;;;;;;;;;;;;;26.44;61.45;97423.42;586754;242;68815;-67
2022/03/10 05:55:26;;;;;;;;;;;;;;;26.43;60.99;97421.80;586667;242;63355;-68
2022/03/10 05:57:53;;;;;;;;;;;;;;;26.44;61.87;97433.41;586642;242;68914;-68
2022/03/10 06:00:21;;;;;;;;;;;;;;;26.44;61.78;97434.20;586596;242;68417;-67
2022/03/10 06:02:49;;;;;;;;;;;;;;;26.44;60.82;97436.10;586668;242;65205;-68
2022/03/10 06:05:16;;;;;;;;;;;;;;;26.43;61.99;97439.87;586626;242;66465;-68
2022/03/10 06:07:44;;;;;;;;;;;;;;;26.43;62.72;97443.36;586659;242;66888;-67
2022/03/10 06:10:11;;;;;;;;;;;;;;;26.44;63.34;97444.19;586579;242;63204;-68
2022/03/10 06:12:39;;;;;;;;;;;;;;;26.44;63.02;97450.38;586657;242;69043;-68
2022/03/10 06:15:07;;;;;;;;;;;;;;;26.44;59.77;97447.67;586655;242;68693;-68
2022/03/10 06:17:38;;;;;;;;;;;;;;;26.45;61.73;97438.48;586544;242;65627;-68
2022/03/10 06:20:08;;;;;;;;;;;;;;;26.43;62.20;97450.66;586651;242;53574;-68
2022/03/10 06:22:36;;;;;;;;;;;;;;;26.44;62.46;97452.27;586667;242;68680;-68
2022/03/10 06:25:04;;;;;;;;;;;;;;;26.44;61.08;97457.66;586538;242;65659;-68
2022/03/10 06:27:32;;;;;;;;;;;;;;;26.44;62.40;97453.06;586326;242;68862;-68
2022/03/10 06:29:59;;;;;;;;;;;;;;;26.43;62.52;97456.84;586425;242;68716;-68
2022/03/10 06:32:27;;;;;;;;;;;;;;;26.43;63.01;97456.05;586649;242;62944;-68
2022/03/10 06:34:57;;;;;;;;;;;;;;;26.43;62.68;97461.44;586716;242;66695;-66
2022/03/10 06:37:25;;;;;;;;;;;;;;;26.43;62.42;97466.83;586709;242;67990;-66
2022/03/10 06:39:57;;;;;;;;;;;;;;;26.45;62.84;97464.64;586594;242;65310;-66
2022/03/10 06:42:22;;;;;;;;;;;;;;;26.45;62.31;97472.73;586435;242;68551;-68
2022/03/10 06:44:49;;;;;;;;;;;;;;;26.45;61.86;97480.81;586795;241;68800;-68
2022/03/10 06:47:17;;;;;;;;;;;;;;;26.46;61.84;97482.40;588297;241;65350;-68
2022/03/10 06:49:44;;;;;;;;;;;;;;;26.47;61.93;97481.32;588345;241;66337;-68
2022/03/10 06:52:12;;;;;;;;;;;;;;;26.47;64.20;97484.02;588221;241;66426;-68
2022/03/10 06:54:40;;;;;;;;;;;;;;;26.48;62.93;97485.61;588323;240;63127;-68
2022/03/10 06:57:08;;;;;;;;;;;;;;;26.50;62.32;97502.29;588339;240;68600;-68
2022/03/10 06:59:35;;;;;;;;;;;;;;;26.50;62.21;97499.59;587680;241;68682;-71
2022/03/10 07:02:03;;;;;;;;;;;;;;;26.50;61.86;97499.59;588324;241;63188;-64
2022/03/10 07:04:31;;;;;;;;;;;;;;;26.51;61.56;97503.91;588148;239;65303;-64
2022/03/10 07:06:58;;;;;;;;;;;;;;;26.53;59.92;97507.12;582219;243;68580;-64
2022/03/10 07:09:26;;;;;;;;;;;;;;;26.55;61.21;97507.63;582350;243;65354;-63
2022/03/10 07:11:54;;;;;;;;;;;;;;;26.58;61.25;97517.02;582147;243;66598;-63
2022/03/10 07:14:21;;;;;;;;;;;;;;;26.59;61.20;97514.02;588603;241;68660;-64
2022/03/10 07:16:49;;;;;;;;;;;;;;;26.62;60.89;97509.93;590442;240;65310;-65
2022/03/10 07:19:16;;;;;;;;;;;;;;;26.62;60.75;97510.72;588536;241;68819;-67
2022/03/10 07:21:44;;;;;;;;;;;;;;;26.63;60.28;97541.17;588619;241;68732;-65
2022/03/10 07:24:12;;;;;;;;;;;;;;;26.62;60.80;97509.93;581602;244;65196;-65
2022/03/10 07:26:40;;;;;;;;;;;;;;;26.62;60.57;97508.03;588763;241;69157;-65
2022/03/10 07:29:07;;;;;;;;;;;;;;;26.63;61.27;97512.34;581549;244;66618;-64
2022/03/10 07:31:35;;;;;;;;;;;;;;;26.63;60.89;97504.25;588700;241;65439;-63
2022/03/10 07:34:07;;;;;;;;;;;;;;;26.63;60.91;97500.73;581516;244;68956;-66
2022/03/10 07:36:32;;;;;;;;;;;;;;;26.63;59.60;97506.95;588422;241;68883;-65
2022/03/10 07:39:00;;;;;;;;;;;;;;;26.65;57.27;97498.55;581580;244;65320;-64
2022/03/10 07:41:27;;;;;;;;;;;;;;;26.71;59.07;97500.87;588583;241;68620;-64
2022/03/10 07:43:56;;;;;;;;;;;;;;;26.74;59.08;97497.59;581501;244;68748;-64
2022/03/10 07:46:24;;;;;;;;;;;;;;;26.75;59.44;97492.98;589004;240;63048;-65
2022/03/10 07:48:52;;;;;;;;;;;;;;;26.77;58.15;97498.89;582028;243;66543;-62
2022/03/10 07:51:20;;;;;;;;;;;;;;;26.75;59.76;97496.48;589155;240;68488;-65
2022/03/10 07:53:48;;;;;;;;;;;;;;;26.72;59.52;97499.77;582026;243;65504;-64
2022/03/10 07:56:16;;;;;;;;;;;;;;;26.73;59.70;97504.05;589056;240;68783;-63
2022/03/10 07:58:43;;;;;;;;;;;;;;;26.72;58.41;97501.67;581994;243;69263;-64
2022/03/10 08:01:11;;;;;;;;;;;;;;;26.72;60.42;97502.47;589091;240;65292;-62
2022/03/10 08:03:39;;;;;;;;;;;;;;;26.74;60.39;97500.28;580281;243;68821;-61
2022/03/10 08:06:08;;;;;;;;;;;;;;;26.75;59.14;97493.78;582868;243;68740;-61
2022/03/10 08:08:37;;;;;;;;;;;;;;;26.77;60.40;97494.30;582911;243;65327;-61
2022/03/10 08:11:08;;;;;;;;;;;;;;;26.79;60.25;97502.06;584664;241;66780;-61
2022/03/10 08:13:36;;;;;;;;;;;;;;;26.81;60.19;97493.69;582750;243;68739;-61
2022/03/10 08:16:03;;;;;;;;;;;;;;;26.82;59.97;97496.11;581750;243;65346;-61
2022/03/10 08:18:31;;;;;;;;;;;;;;;26.85;60.33;97500.11;581272;244;68354;-61
2022/03/10 08:21:00;;;;;;;;;;;;;;;26.86;60.45;97504.39;581378;244;49794;-61
2022/03/10 08:23:28;;;;;;;;;;;;;;;26.87;60.13;97493.29;581312;244;65472;-62
2022/03/10 08:25:56;;;;;;;;;;;;;;;26.88;60.73;97503.00;581342;244;68922;-62
2022/03/10 08:28:26;;;;;;;;;;;;;;;26.88;60.46;97502.20;581338;244;68585;-63
2022/03/10 08:30:53;;;;;;;;;;;;;;;26.90;60.64;97505.38;581375;244;63332;-66
2022/03/10 08:33:21;;;;;;;;;;;;;;;26.90;60.35;97502.68;581336;244;66426;-65
2022/03/10 08:35:49;;;;;;;;;;;;;;;26.89;58.48;97506.48;581323;244;68850;-64
2022/03/10 08:38:17;;;;;;;;;;;;;;;26.91;58.66;97504.30;582703;241;65298;-65
2022/03/10 08:40:44;;;;;;;;;;;;;;;26.94;57.92;97506.40;586632;241;65914;-64
2022/03/10 08:43:15;;;;;;;;;;;;;;;26.96;57.15;97501.52;589188;240;69019;-63
2022/03/10 08:45:43;;;;;;;;;;;;;;;26.98;58.05;97499.30;582066;243;63265;-64
2022/03/10 08:48:10;;;;;;;;;;;;;;;26.96;58.33;97505.00;575152;246;66611;-63
2022/03/10 08:50:39;;;;;;;;;;;;;;;26.96;58.02;97507.70;575604;246;66760;-64
2022/03/10 08:53:08;;;;;;;;;;;;;;;26.94;59.43;97512.59;575041;246;65422;-65
2022/03/10 08:55:36;;;;;;;;;;;;;;;26.93;59.38;97516.39;575606;245;68883;-63
2022/03/10 08:58:03;;;;;;;;;;;;;;;26.97;57.61;97524.68;575177;246;68560;-63
2022/03/10 09:00:31;;;;;;;;;;;;;;;26.98;57.03;97520.88;575496;246;65346;-64
2022/03/10 09:02:58;;;;;;;;;;;;;;;27.00;57.72;97522.18;575099;246;68820;-66
2022/03/10 09:05:27;;;;;;;;;;;;;;;27.00;57.75;97518.69;575667;246;68324;-67
2022/03/10 09:07:54;;;;;;;;;;;;;;;27.01;57.66;97518.41;575132;246;65275;-62
2022/03/10 09:10:22;;;;;;;;;;;;;;;27.00;51.57;97524.08;575479;246;68921;-66
2022/03/10 09:12:49;;;;;;;;;;;;;;;27.02;57.55;97524.59;575051;246;69063;-64
2022/03/10 09:15:17;;;;;;;;;;;;;;;27.05;56.21;97525.89;575560;246;65506;-68
2022/03/10 09:17:44;;;;;;;;;;;;;;;27.06;57.88;97532.88;575132;246;68864;-69
2022/03/10 09:20:13;;;;;;;;;;;;;;;27.08;58.27;97538.78;575546;246;68581;-63
2022/03/10 09:22:43;;;;;;;;;;;;;;;27.02;50.81;97532.68;580511;244;42362;-66
2022/03/10 09:25:11;;;;;;;;;;;;;;;27.05;56.38;97536.69;580522;244;66703;-66
2022/03/10 09:27:39;;;;;;;;;;;;;;;27.05;57.04;97539.38;580513;244;68757;-66
2022/03/10 09:30:11;;;;;;;;;;;;;;;27.02;55.09;97548.87;580503;244;63042;-68
2022/03/10 09:32:39;;;;;;;;;;;;;;;27.07;55.62;97543.38;580504;244;66493;-68
2022/03/10 09:35:08;;;;;;;;;;;;;;;27.10;55.42;97541.98;580506;244;68797;-68
2022/03/10 09:37:36;;;;;;;;;;;;;;;27.12;56.16;97550.56;580506;244;65404;-67
2022/03/10 09:40:04;;;;;;;;;;;;;;;27.13;56.46;97538.69;580525;244;69180;-66
2022/03/10 09:42:33;;;;;;;;;;;;;;;27.13;56.39;97542.19;580455;244;68635;-68
2022/03/10 09:45:02;;;;;;;;;;;;;;;27.15;57.98;97541.90;581082;242;63349;-68
2022/03/10 09:47:30;;;;;;;;;;;;;;;27.16;56.84;97547.01;575462;246;68687;-65
2022/03/10 09:49:57;;;;;;;;;;;;;;;27.19;55.92;97546.41;575852;246;68739;-66
2022/03/10 09:52:25;;;;;;;;;;;;;;;27.20;56.05;97550.72;575849;246;65231;-64
2022/03/10 09:54:52;;;;;;;;;;;;;;;27.22;56.30;97553.90;584327;242;68898;-67
2022/03/10 09:57:22;;;;;;;;;;;;;;;27.23;57.38;97550.12;584192;242;68554;-69
2022/03/10 09:59:51;;;;;;;;;;;;;;;27.23;57.08;97555.52;584363;242;66428;-67
2022/03/10 10:02:19;;;;;;;;;;;;;;;27.25;57.58;97551.71;584459;242;68672;-68
2022/03/10 10:04:48;;;;;;;;;;;;;;;27.27;57.55;97557.62;584465;242;68757;-70
2022/03/10 10:07:17;;;;;;;;;;;;;;;27.26;56.89;97556.82;584570;242;65576;-75
2022/03/10 10:09:51;;;;;;;;;;;;;;;27.27;58.41;97558.41;584506;242;71944;-69
2022/03/10 10:12:17;;;;;;;;;;;;;;;27.27;58.38;97554.92;584469;242;68806;-73
2022/03/10 10:14:46;;;;;;;;;;;;;;;27.28;59.53;97559.20;584572;242;64143;-69
2022/03/10 10:17:14;;;;;;;;;;;;;;;27.27;58.52;97554.92;584523;242;66888;-67
2022/03/10 10:19:43;;;;;;;;;;;;;;;27.29;58.42;97553.52;584209;242;68613;-68
2022/03/10 10:22:23;;;;;;;;;;;;;;;27.29;58.79;97558.92;583878;243;63182;-65
2022/03/10 10:24:54;;;;;;;;;;;;;;;27.29;58.17;97553.52;576166;246;66364;-66
2022/03/10 10:27:25;;;;;;;;;;;;;;;27.30;58.06;97546.22;583928;243;69183;-66
2022/03/10 10:29:55;;;;;;;;;;;;;;;27.31;58.02;97545.11;576934;246;63371;-68
2022/03/10 10:32:27;;;;;;;;;;;;;;;27.31;59.21;97542.41;583856;243;68805;-64
2022/03/10 10:35:02;;;;;;;;;;;;;;;27.31;57.91;97537.02;576920;246;68888;-64
2022/03/10 10:37:32;;;;;;;;;;;;;;;27.31;57.93;97539.71;576479;246;44983;-64
2022/03/10 10:40:00;;;;;;;;;;;;;;;27.32;58.32;97528.63;577686;245;66465;-65
2022/03/10 10:42:32;;;;;;;;;;;;;;;27.31;57.63;97528.92;583917;243;68517;-65
2022/03/10 10:45:00;;;;;;;;;;;;;;;27.31;58.23;97529.74;577759;243;63046;-65
2022/03/10 10:47:30;;;;;;;;;;;;;;;27.32;57.55;97527.84;581501;244;68168;-65
2022/03/10 10:49:59;;;;;;;;;;;;;;;27.32;57.55;97527.84;587009;241;68615;-63
2022/03/10 10:52:28;;;;;;;;;;;;;;;27.33;57.93;97529.42;581863;243;65825;-63
2022/03/10 10:55:06;;;;;;;;;;;;;;;27.32;57.74;97520.54;582375;243;68759;-64
2022/03/10 10:57:34;;;;;;;;;;;;;;;27.33;57.08;97524.03;587117;241;68449;-65
2022/03/10 11:00:09;;;;;;;;;;;;;;;27.33;56.77;97518.63;586651;241;63011;-64
2022/03/10 11:02:47;;;;;;;;;;;;;;;27.34;57.57;97512.95;586799;241;69090;-68
2022/03/10 11:05:14;;;;;;;;;;;;;;;27.32;57.50;97517.84;586925;241;66614;-65
2022/03/10 11:07:42;;;;;;;;;;;;;;;27.25;52.97;97506.63;587087;241;65335;-64
2022/03/10 11:10:11;;;;;;;;;;;;;;;27.30;54.60;97506.53;587064;241;68712;-65
2022/03/10 11:12:44;;;;;;;;;;;;;;;27.31;56.85;97513.55;586975;241;68780;-65
2022/03/10 11:15:13;;;;;;;;;;;;;;;27.30;58.31;97511.14;586175;241;63179;-68
2022/03/10 11:17:41;;;;;;;;;;;;;;;27.26;52.33;97510.95;586093;241;68780;-66
2022/03/10 11:20:14;;;;;;;;;;;;;;;27.31;57.20;97518.13;586140;241;68809;-68
2022/03/10 11:22:46;;;;;;;;;;;;;;;27.30;56.83;97519.23;586824;241;65387;-67
2022/03/10 11:25:16;;;;;;;;;;;;;;;27.31;57.06;97523.52;587052;241;66666;-66
2022/03/10 11:27:51;;;;;;;;;;;;;;;27.30;56.98;97516.54;587085;241;66844;-67
2022/03/10 11:30:20;;;;;;;;;;;;;;;27.28;56.73;97524.92;587046;241;65299;-67
2022/03/10 11:32:49;;;;;;;;;;;;;;;27.31;57.69;97526.22;587066;241;67329;-67
2022/03/10 11:35:17;;;;;;;;;;;;;;;27.31;58.23;97523.52;587174;240;68387;-65
2022/03/10 11:37:46;;;;;;;;;;;;;;;27.30;57.53;97528.12;587070;241;65921;-66
2022/03/10 11:40:32;;;;;;;;;;;;;;;27.31;57.22;97518.13;587158;241;66599;-67
2022/03/10 11:43:01;;;;;;;;;;;;;;;27.31;57.75;97527.05;587067;241;69072;-67
2022/03/10 11:45:30;;;;;;;;;;;;;;;27.30;57.97;97520.03;586973;241;63240;-66
2022/03/10 11:48:00;;;;;;;;;;;;;;;27.31;57.09;97528.92;586988;241;68783;-67
2022/03/10 11:50:27;;;;;;;;;;;;;;;27.31;56.91;97529.74;584476;241;68937;-67
2022/03/10 11:52:59;;;;;;;;;;;;;;;27.32;57.27;97531.33;587011;241;65298;-67
2022/03/10 11:58:06;;;;;;;;;;;;;;;27.31;57.77;97537.84;613093;231;39859;-67
2022/03/10 12:00:48;;;;;;;;;;;;;;;27.32;56.74;97523.23;613340;231;65144;-67
2022/03/10 12:03:11;;;;;;;;;;;;;;;27.33;55.14;97532.13;613964;231;66369;-68
2022/03/10 12:05:52;;;;;;;;;;;;;;;27.34;55.42;97533.74;613535;231;66612;-68
2022/03/10 12:08:20;;;;;;;;;;;;;;;27.34;56.57;97528.34;605918;234;65636;-67
2022/03/10 12:10:48;;;;;;;;;;;;;;;27.35;56.98;97527.23;605967;234;69842;-65
2022/03/10 12:13:23;;;;;;;;;;;;;;;27.34;57.56;97531.84;605837;234;68528;-66
2022/03/10 12:15:50;;;;;;;;;;;;;;;27.35;55.95;97524.53;605974;234;65383;-65
2022/03/10 12:18:19;;;;;;;;;;;;;;;27.34;56.95;97522.95;605952;234;68790;-64
2022/03/10 12:20:48;;;;;;;;;;;;;;;27.36;56.33;97515.33;605864;234;66495;-67
2022/03/10 12:23:16;;;;;;;;;;;;;;;27.35;56.43;97517.23;605996;234;63247;-62
2022/03/10 12:25:45;;;;;;;;;;;;;;;27.37;57.56;97519.64;605956;234;68981;-66
2022/03/10 12:28:13;;;;;;;;;;;;;;;27.36;55.45;97513.42;605824;234;68832;-64
2022/03/10 12:30:47;;;;;;;;;;;;;;;27.30;56.77;97516.54;604628;233;65612;-67
2022/03/10 12:33:15;;;;;;;;;;;;;;;27.23;55.73;97515.05;625481;225;68794;-67
2022/03/10 12:35:42;;;;;;;;;;;;;;;27.18;55.33;97517.84;621635;225;68722;-68
2022/03/10 12:38:10;;;;;;;;;;;;;;;27.15;55.27;97514.92;618826;225;65258;-68
2022/03/10 12:40:38;;;;;;;;;;;;;;;27.14;54.73;97527.59;621354;228;68625;-68
2022/03/10 12:43:08;;;;;;;;;;;;;;;27.11;54.85;97536.28;622092;225;68654;-68
2022/03/10 12:45:46;;;;;;;;;;;;;;;27.13;54.17;97534.09;618647;225;65283;-72
2022/03/10 12:48:18;;;;;;;;;;;;;;;27.19;53.13;97540.22;613765;231;68426;-69
2022/03/10 12:50:46;;;;;;;;;;;;;;;27.22;54.80;97537.71;613852;231;68379;-68
2022/03/10 12:53:15;;;;;;;;;;;;;;;27.22;54.84;97540.41;614104;231;64985;-69
2022/03/10 12:55:44;;;;;;;;;;;;;;;27.22;54.30;97548.50;613926;231;68454;-70
2022/03/10 12:58:12;;;;;;;;;;;;;;;27.23;54.49;97547.42;611604;232;68985;-70
2022/03/10 13:00:40;;;;;;;;;;;;;;;27.24;54.77;97545.52;611522;232;65168;-70
2022/03/10 13:03:08;;;;;;;;;;;;;;;27.25;55.28;97546.31;611560;232;66535;-70